West Lima, Wisconsin
Current Conditions -  °F | °C
As of 9:55 AM on Monday 24 Nov 2014 (Local Time) from KY51 Reporting Station
Overcast Overcast  
Wind Chill: 16°   Ceiling: 700
Heat Index: 29°   Visibility: 0.75mi
Dew Point: 29°   Wind: 18mph
Humidity: 100%   Direction: 300°WNW
Pressure: 29.25"   Gusts: 28mph
Location:  43.6192°N, 90.6193°W
Report Text: KY51 241555Z AUTO 30016G24KT 3/4SM OVC007 M02/M02 A2925 RMK AO1 T10171017
Loading
Personal Weather Stations






























Interactive Weather Map New forecast layout! Learn more

10-Day Weather Forecast

Advertisements
Track Severe Weather on mobile